sensor_id;sensor_type;location;lat;lon;timestamp;P1;durP1;ratioP1;P2;durP2;ratioP2
27539;SDS011;15906;52.046;4.724;2022-08-19T00:01:26;10.68;;;7.40;;
27539;SDS011;15906;52.046;4.724;2022-08-19T00:04:33;9.57;;;6.82;;
27539;SDS011;15906;52.046;4.724;2022-08-19T00:07:28;10.38;;;6.90;;
27539;SDS011;15906;52.046;4.724;2022-08-19T00:10:35;12.75;;;8.02;;
27539;SDS011;15906;52.046;4.724;2022-08-19T00:13:24;9.32;;;7.85;;
27539;SDS011;15906;52.046;4.724;2022-08-19T00:16:30;11.15;;;8.15;;
27539;SDS011;15906;52.046;4.724;2022-08-19T00:19:07;9.20;;;6.97;;
27539;SDS011;15906;52.046;4.724;2022-08-19T00:21:55;10.70;;;6.80;;
27539;SDS011;15906;52.046;4.724;2022-08-19T00:24:44;8.65;;;6.82;;
27539;SDS011;15906;52.046;4.724;2022-08-19T00:27:29;10.63;;;7.03;;
27539;SDS011;15906;52.046;4.724;2022-08-19T00:30:22;11.65;;;8.05;;
27539;SDS011;15906;52.046;4.724;2022-08-19T00:32:54;9.75;;;7.68;;
27539;SDS011;15906;52.046;4.724;2022-08-19T00:35:26;10.40;;;7.13;;
27539;SDS011;15906;52.046;4.724;2022-08-19T00:37:59;10.85;;;7.10;;
27539;SDS011;15906;52.046;4.724;2022-08-19T00:40:27;9.02;;;7.38;;
27539;SDS011;15906;52.046;4.724;2022-08-19T00:42:53;10.50;;;7.18;;
27539;SDS011;15906;52.046;4.724;2022-08-19T00:45:21;11.38;;;7.55;;
27539;SDS011;15906;52.046;4.724;2022-08-19T00:47:50;13.50;;;7.65;;
27539;SDS011;15906;52.046;4.724;2022-08-19T00:50:29;8.57;;;6.47;;
27539;SDS011;15906;52.046;4.724;2022-08-19T00:52:57;11.75;;;7.45;;
27539;SDS011;15906;52.046;4.724;2022-08-19T00:55:30;9.82;;;7.90;;
27539;SDS011;15906;52.046;4.724;2022-08-19T00:58:09;10.63;;;7.80;;
27539;SDS011;15906;52.046;4.724;2022-08-19T01:00:43;13.52;;;8.43;;
27539;SDS011;15906;52.046;4.724;2022-08-19T01:03:11;11.57;;;7.65;;
27539;SDS011;15906;52.046;4.724;2022-08-19T01:05:41;10.25;;;7.55;;
27539;SDS011;15906;52.046;4.724;2022-08-19T01:08:08;12.57;;;7.60;;
27539;SDS011;15906;52.046;4.724;2022-08-19T01:10:42;10.30;;;7.18;;
27539;SDS011;15906;52.046;4.724;2022-08-19T01:13:13;10.05;;;7.65;;
27539;SDS011;15906;52.046;4.724;2022-08-19T01:15:44;10.82;;;7.63;;
27539;SDS011;15906;52.046;4.724;2022-08-19T01:18:14;12.13;;;8.02;;
27539;SDS011;15906;52.046;4.724;2022-08-19T01:20:43;12.57;;;8.10;;
27539;SDS011;15906;52.046;4.724;2022-08-19T01:23:11;12.57;;;8.13;;
27539;SDS011;15906;52.046;4.724;2022-08-19T01:25:48;9.90;;;7.90;;
27539;SDS011;15906;52.046;4.724;2022-08-19T01:28:16;8.77;;;7.55;;
27539;SDS011;15906;52.046;4.724;2022-08-19T01:30:44;11.38;;;7.82;;
27539;SDS011;15906;52.046;4.724;2022-08-19T01:33:11;9.35;;;7.22;;
27539;SDS011;15906;52.046;4.724;2022-08-19T01:35:37;12.15;;;8.40;;
27539;SDS011;15906;52.046;4.724;2022-08-19T01:38:05;12.23;;;8.73;;
27539;SDS011;15906;52.046;4.724;2022-08-19T01:40:32;11.52;;;8.30;;
27539;SDS011;15906;52.046;4.724;2022-08-19T01:43:00;12.73;;;8.43;;
27539;SDS011;15906;52.046;4.724;2022-08-19T01:45:28;11.35;;;8.55;;
27539;SDS011;15906;52.046;4.724;2022-08-19T01:47:54;14.75;;;9.05;;
27539;SDS011;15906;52.046;4.724;2022-08-19T01:50:21;12.35;;;8.65;;
27539;SDS011;15906;52.046;4.724;2022-08-19T01:52:47;17.05;;;8.75;;
27539;SDS011;15906;52.046;4.724;2022-08-19T01:55:14;13.13;;;8.68;;
27539;SDS011;15906;52.046;4.724;2022-08-19T01:57:42;13.45;;;9.20;;
27539;SDS011;15906;52.046;4.724;2022-08-19T02:00:14;13.02;;;8.90;;
27539;SDS011;15906;52.046;4.724;2022-08-19T02:02:42;14.52;;;9.05;;
27539;SDS011;15906;52.046;4.724;2022-08-19T02:05:08;14.10;;;9.77;;
27539;SDS011;15906;52.046;4.724;2022-08-19T02:07:35;15.07;;;10.60;;
27539;SDS011;15906;52.046;4.724;2022-08-19T02:10:05;10.68;;;9.32;;
27539;SDS011;15906;52.046;4.724;2022-08-19T02:12:32;10.38;;;8.77;;
27539;SDS011;15906;52.046;4.724;2022-08-19T02:14:58;14.63;;;11.02;;
27539;SDS011;15906;52.046;4.724;2022-08-19T02:17:24;14.40;;;10.15;;
27539;SDS011;15906;52.046;4.724;2022-08-19T02:19:50;14.98;;;9.65;;
27539;SDS011;15906;52.046;4.724;2022-08-19T02:22:15;15.10;;;10.18;;
27539;SDS011;15906;52.046;4.724;2022-08-19T02:24:41;14.55;;;9.20;;
27539;SDS011;15906;52.046;4.724;2022-08-19T02:27:07;12.98;;;9.23;;
27539;SDS011;15906;52.046;4.724;2022-08-19T02:29:32;17.65;;;9.63;;
27539;SDS011;15906;52.046;4.724;2022-08-19T02:31:58;18.65;;;9.23;;
27539;SDS011;15906;52.046;4.724;2022-08-19T02:34:23;14.85;;;9.70;;
27539;SDS011;15906;52.046;4.724;2022-08-19T02:36:50;12.93;;;10.18;;
27539;SDS011;15906;52.046;4.724;2022-08-19T02:39:16;17.85;;;10.88;;
27539;SDS011;15906;52.046;4.724;2022-08-19T02:41:41;12.73;;;9.80;;
27539;SDS011;15906;52.046;4.724;2022-08-19T02:44:07;13.23;;;9.70;;
27539;SDS011;15906;52.046;4.724;2022-08-19T02:46:33;15.05;;;9.85;;
27539;SDS011;15906;52.046;4.724;2022-08-19T02:49:00;14.13;;;10.70;;
27539;SDS011;15906;52.046;4.724;2022-08-19T02:51:32;14.90;;;10.02;;
27539;SDS011;15906;52.046;4.724;2022-08-19T02:53:59;16.58;;;10.75;;
27539;SDS011;15906;52.046;4.724;2022-08-19T02:56:26;13.05;;;9.52;;
27539;SDS011;15906;52.046;4.724;2022-08-19T02:58:52;18.50;;;11.00;;
27539;SDS011;15906;52.046;4.724;2022-08-19T03:01:22;15.40;;;10.15;;
27539;SDS011;15906;52.046;4.724;2022-08-19T03:03:49;14.63;;;10.85;;
27539;SDS011;15906;52.046;4.724;2022-08-19T03:06:16;15.07;;;11.88;;
27539;SDS011;15906;52.046;4.724;2022-08-19T03:08:42;14.55;;;11.57;;
27539;SDS011;15906;52.046;4.724;2022-08-19T03:11:16;17.60;;;11.98;;
27539;SDS011;15906;52.046;4.724;2022-08-19T03:13:42;24.40;;;16.13;;
27539;SDS011;15906;52.046;4.724;2022-08-19T03:16:08;19.33;;;13.50;;
27539;SDS011;15906;52.046;4.724;2022-08-19T03:18:34;26.85;;;14.40;;
27539;SDS011;15906;52.046;4.724;2022-08-19T03:21:00;23.30;;;14.93;;
27539;SDS011;15906;52.046;4.724;2022-08-19T03:23:25;21.25;;;14.52;;
27539;SDS011;15906;52.046;4.724;2022-08-19T03:25:52;21.27;;;15.00;;
27539;SDS011;15906;52.046;4.724;2022-08-19T03:28:18;24.08;;;15.70;;
27539;SDS011;15906;52.046;4.724;2022-08-19T03:30:59;21.85;;;14.88;;
27539;SDS011;15906;52.046;4.724;2022-08-19T03:33:27;29.35;;;17.17;;
27539;SDS011;15906;52.046;4.724;2022-08-19T03:36:08;23.45;;;16.27;;
27539;SDS011;15906;52.046;4.724;2022-08-19T03:38:39;24.13;;;15.57;;
27539;SDS011;15906;52.046;4.724;2022-08-19T03:41:09;25.15;;;15.57;;
27539;SDS011;15906;52.046;4.724;2022-08-19T03:43:37;23.70;;;16.83;;
27539;SDS011;15906;52.046;4.724;2022-08-19T03:46:05;28.92;;;15.90;;
27539;SDS011;15906;52.046;4.724;2022-08-19T03:48:34;25.15;;;17.23;;
27539;SDS011;15906;52.046;4.724;2022-08-19T03:51:00;24.08;;;16.23;;
27539;SDS011;15906;52.046;4.724;2022-08-19T03:53:26;25.92;;;17.45;;
27539;SDS011;15906;52.046;4.724;2022-08-19T03:55:53;27.00;;;18.30;;
27539;SDS011;15906;52.046;4.724;2022-08-19T03:58:20;26.90;;;18.13;;
27539;SDS011;15906;52.046;4.724;2022-08-19T04:00:45;31.85;;;19.20;;
27539;SDS011;15906;52.046;4.724;2022-08-19T04:03:11;28.48;;;19.05;;
27539;SDS011;15906;52.046;4.724;2022-08-19T04:05:36;33.22;;;19.77;;
27539;SDS011;15906;52.046;4.724;2022-08-19T04:08:02;29.00;;;20.02;;
27539;SDS011;15906;52.046;4.724;2022-08-19T04:10:29;33.25;;;20.58;;
27539;SDS011;15906;52.046;4.724;2022-08-19T04:12:55;32.17;;;20.40;;
27539;SDS011;15906;52.046;4.724;2022-08-19T04:15:20;32.55;;;21.63;;
27539;SDS011;15906;52.046;4.724;2022-08-19T04:17:46;34.65;;;20.92;;
27539;SDS011;15906;52.046;4.724;2022-08-19T04:20:11;37.53;;;22.23;;
27539;SDS011;15906;52.046;4.724;2022-08-19T04:22:37;34.22;;;21.90;;
27539;SDS011;15906;52.046;4.724;2022-08-19T04:25:03;35.63;;;22.30;;
27539;SDS011;15906;52.046;4.724;2022-08-19T04:27:28;35.22;;;20.80;;
27539;SDS011;15906;52.046;4.724;2022-08-19T04:29:54;32.17;;;21.05;;
27539;SDS011;15906;52.046;4.724;2022-08-19T04:32:20;34.75;;;21.10;;
27539;SDS011;15906;52.046;4.724;2022-08-19T04:34:45;32.80;;;21.17;;
27539;SDS011;15906;52.046;4.724;2022-08-19T04:37:11;36.60;;;23.38;;
27539;SDS011;15906;52.046;4.724;2022-08-19T04:39:37;42.78;;;23.77;;
27539;SDS011;15906;52.046;4.724;2022-08-19T04:42:22;38.33;;;24.10;;
27539;SDS011;15906;52.046;4.724;2022-08-19T04:45:07;41.63;;;25.98;;
27539;SDS011;15906;52.046;4.724;2022-08-19T04:47:35;51.00;;;28.17;;
27539;SDS011;15906;52.046;4.724;2022-08-19T04:50:02;52.63;;;29.02;;
27539;SDS011;15906;52.046;4.724;2022-08-19T04:52:28;51.60;;;27.50;;
27539;SDS011;15906;52.046;4.724;2022-08-19T04:54:56;50.20;;;29.63;;
27539;SDS011;15906;52.046;4.724;2022-08-19T04:57:22;60.75;;;31.63;;
27539;SDS011;15906;52.046;4.724;2022-08-19T04:59:48;61.08;;;32.03;;
27539;SDS011;15906;52.046;4.724;2022-08-19T05:02:14;67.32;;;34.92;;
27539;SDS011;15906;52.046;4.724;2022-08-19T05:04:39;76.50;;;37.97;;
27539;SDS011;15906;52.046;4.724;2022-08-19T05:07:06;69.95;;;35.33;;
27539;SDS011;15906;52.046;4.724;2022-08-19T05:09:32;74.80;;;35.05;;
27539;SDS011;15906;52.046;4.724;2022-08-19T05:11:58;65.18;;;33.63;;
27539;SDS011;15906;52.046;4.724;2022-08-19T05:14:24;74.60;;;35.20;;
27539;SDS011;15906;52.046;4.724;2022-08-19T05:16:50;74.65;;;34.97;;
27539;SDS011;15906;52.046;4.724;2022-08-19T05:19:15;83.38;;;37.58;;
27539;SDS011;15906;52.046;4.724;2022-08-19T05:22:00;72.05;;;33.83;;
27539;SDS011;15906;52.046;4.724;2022-08-19T05:24:44;69.47;;;33.65;;
27539;SDS011;15906;52.046;4.724;2022-08-19T05:27:10;73.95;;;33.97;;
27539;SDS011;15906;52.046;4.724;2022-08-19T05:29:35;81.97;;;38.67;;
27539;SDS011;15906;52.046;4.724;2022-08-19T05:32:03;84.47;;;36.80;;
27539;SDS011;15906;52.046;4.724;2022-08-19T05:34:30;82.95;;;37.10;;
27539;SDS011;15906;52.046;4.724;2022-08-19T05:36:58;81.47;;;37.28;;
27539;SDS011;15906;52.046;4.724;2022-08-19T05:39:25;88.20;;;39.65;;
27539;SDS011;15906;52.046;4.724;2022-08-19T05:41:54;72.97;;;36.20;;
27539;SDS011;15906;52.046;4.724;2022-08-19T05:44:25;74.50;;;35.55;;
27539;SDS011;15906;52.046;4.724;2022-08-19T05:46:56;71.60;;;36.40;;
27539;SDS011;15906;52.046;4.724;2022-08-19T05:49:22;73.47;;;34.47;;
27539;SDS011;15906;52.046;4.724;2022-08-19T05:51:50;73.38;;;35.53;;
27539;SDS011;15906;52.046;4.724;2022-08-19T05:54:16;74.15;;;34.00;;
27539;SDS011;15906;52.046;4.724;2022-08-19T05:56:42;68.07;;;35.35;;
27539;SDS011;15906;52.046;4.724;2022-08-19T05:59:09;77.43;;;34.75;;
27539;SDS011;15906;52.046;4.724;2022-08-19T06:01:40;67.15;;;34.33;;
27539;SDS011;15906;52.046;4.724;2022-08-19T06:04:07;75.03;;;35.60;;
27539;SDS011;15906;52.046;4.724;2022-08-19T06:06:33;70.35;;;35.28;;
27539;SDS011;15906;52.046;4.724;2022-08-19T06:09:00;67.15;;;34.03;;
27539;SDS011;15906;52.046;4.724;2022-08-19T06:14:03;72.75;;;35.67;;
27539;SDS011;15906;52.046;4.724;2022-08-19T06:16:33;71.78;;;37.53;;
27539;SDS011;15906;52.046;4.724;2022-08-19T06:19:01;77.80;;;38.35;;
27539;SDS011;15906;52.046;4.724;2022-08-19T06:21:29;68.28;;;35.20;;
27539;SDS011;15906;52.046;4.724;2022-08-19T06:23:56;68.40;;;35.30;;
27539;SDS011;15906;52.046;4.724;2022-08-19T06:26:23;71.07;;;36.03;;
27539;SDS011;15906;52.046;4.724;2022-08-19T06:28:49;69.05;;;36.72;;
27539;SDS011;15906;52.046;4.724;2022-08-19T06:31:16;72.22;;;34.90;;
27539;SDS011;15906;52.046;4.724;2022-08-19T06:33:43;69.95;;;34.67;;
27539;SDS011;15906;52.046;4.724;2022-08-19T06:36:44;71.35;;;35.47;;
27539;SDS011;15906;52.046;4.724;2022-08-19T06:39:06;75.32;;;37.47;;
27539;SDS011;15906;52.046;4.724;2022-08-19T06:41:34;71.25;;;35.67;;
27539;SDS011;15906;52.046;4.724;2022-08-19T06:44:01;72.32;;;34.78;;
27539;SDS011;15906;52.046;4.724;2022-08-19T06:46:27;70.40;;;36.75;;
27539;SDS011;15906;52.046;4.724;2022-08-19T06:48:52;74.85;;;37.47;;
27539;SDS011;15906;52.046;4.724;2022-08-19T06:51:19;68.57;;;36.42;;
27539;SDS011;15906;52.046;4.724;2022-08-19T06:53:46;66.38;;;35.85;;
27539;SDS011;15906;52.046;4.724;2022-08-19T06:56:13;70.82;;;36.78;;
27539;SDS011;15906;52.046;4.724;2022-08-19T06:58:40;61.63;;;35.70;;
27539;SDS011;15906;52.046;4.724;2022-08-19T07:01:06;65.88;;;35.30;;
27539;SDS011;15906;52.046;4.724;2022-08-19T07:03:33;63.72;;;35.17;;
27539;SDS011;15906;52.046;4.724;2022-08-19T07:06:07;60.53;;;33.88;;
27539;SDS011;15906;52.046;4.724;2022-08-19T07:08:35;63.65;;;34.63;;
27539;SDS011;15906;52.046;4.724;2022-08-19T07:11:02;66.47;;;33.15;;
27539;SDS011;15906;52.046;4.724;2022-08-19T07:13:32;59.50;;;32.47;;
27539;SDS011;15906;52.046;4.724;2022-08-19T07:16:02;66.95;;;32.83;;
27539;SDS011;15906;52.046;4.724;2022-08-19T07:18:32;61.20;;;32.67;;
27539;SDS011;15906;52.046;4.724;2022-08-19T07:21:04;47.75;;;30.13;;
27539;SDS011;15906;52.046;4.724;2022-08-19T07:23:35;55.20;;;32.47;;
27539;SDS011;15906;52.046;4.724;2022-08-19T07:28:34;55.65;;;31.48;;
27539;SDS011;15906;52.046;4.724;2022-08-19T07:30:59;48.60;;;29.65;;
27539;SDS011;15906;52.046;4.724;2022-08-19T07:33:26;44.85;;;28.42;;
27539;SDS011;15906;52.046;4.724;2022-08-19T07:35:52;48.60;;;30.52;;
27539;SDS011;15906;52.046;4.724;2022-08-19T07:38:18;43.88;;;27.42;;
27539;SDS011;15906;52.046;4.724;2022-08-19T07:40:43;50.72;;;27.40;;
27539;SDS011;15906;52.046;4.724;2022-08-19T07:43:10;51.70;;;27.52;;
27539;SDS011;15906;52.046;4.724;2022-08-19T07:45:36;42.33;;;25.63;;
27539;SDS011;15906;52.046;4.724;2022-08-19T07:48:02;40.20;;;25.70;;
27539;SDS011;15906;52.046;4.724;2022-08-19T07:50:28;44.55;;;26.02;;
27539;SDS011;15906;52.046;4.724;2022-08-19T07:52:54;43.97;;;26.67;;
27539;SDS011;15906;52.046;4.724;2022-08-19T07:55:21;39.22;;;27.23;;
27539;SDS011;15906;52.046;4.724;2022-08-19T07:57:49;39.55;;;25.23;;
27539;SDS011;15906;52.046;4.724;2022-08-19T08:00:16;39.88;;;24.42;;
27539;SDS011;15906;52.046;4.724;2022-08-19T08:02:41;42.05;;;24.75;;
27539;SDS011;15906;52.046;4.724;2022-08-19T08:05:07;38.67;;;25.35;;
27539;SDS011;15906;52.046;4.724;2022-08-19T08:07:52;43.35;;;27.52;;
27539;SDS011;15906;52.046;4.724;2022-08-19T08:10:36;40.72;;;26.40;;
27539;SDS011;15906;52.046;4.724;2022-08-19T08:13:03;38.08;;;24.55;;
27539;SDS011;15906;52.046;4.724;2022-08-19T08:15:30;41.17;;;24.35;;
27539;SDS011;15906;52.046;4.724;2022-08-19T08:17:57;41.20;;;24.08;;
27539;SDS011;15906;52.046;4.724;2022-08-19T08:20:23;35.33;;;24.20;;
27539;SDS011;15906;52.046;4.724;2022-08-19T08:22:49;35.53;;;23.67;;
27539;SDS011;15906;52.046;4.724;2022-08-19T08:25:34;33.97;;;21.58;;
27539;SDS011;15906;52.046;4.724;2022-08-19T08:28:01;29.83;;;21.42;;
27539;SDS011;15906;52.046;4.724;2022-08-19T08:30:28;34.53;;;22.48;;
27539;SDS011;15906;52.046;4.724;2022-08-19T08:32:55;34.10;;;22.60;;
27539;SDS011;15906;52.046;4.724;2022-08-19T08:35:22;35.50;;;21.63;;
27539;SDS011;15906;52.046;4.724;2022-08-19T08:37:49;32.53;;;22.75;;
27539;SDS011;15906;52.046;4.724;2022-08-19T08:40:23;38.70;;;24.88;;
27539;SDS011;15906;52.046;4.724;2022-08-19T08:43:07;34.20;;;24.38;;
27539;SDS011;15906;52.046;4.724;2022-08-19T08:46:11;32.03;;;24.23;;
27539;SDS011;15906;52.046;4.724;2022-08-19T08:48:53;37.83;;;24.77;;
27539;SDS011;15906;52.046;4.724;2022-08-19T08:51:46;39.35;;;25.92;;
27539;SDS011;15906;52.046;4.724;2022-08-19T08:54:18;44.53;;;25.10;;
27539;SDS011;15906;52.046;4.724;2022-08-19T08:56:49;36.55;;;25.85;;
27539;SDS011;15906;52.046;4.724;2022-08-19T08:59:20;41.22;;;25.42;;
27539;SDS011;15906;52.046;4.724;2022-08-19T09:01:51;37.97;;;24.33;;
27539;SDS011;15906;52.046;4.724;2022-08-19T09:04:17;37.88;;;24.15;;
27539;SDS011;15906;52.046;4.724;2022-08-19T09:09:41;39.70;;;25.77;;
27539;SDS011;15906;52.046;4.724;2022-08-19T09:12:24;34.40;;;24.25;;
27539;SDS011;15906;52.046;4.724;2022-08-19T09:15:00;39.70;;;25.15;;
27539;SDS011;15906;52.046;4.724;2022-08-19T09:17:29;45.85;;;24.42;;
27539;SDS011;15906;52.046;4.724;2022-08-19T09:19:59;41.03;;;23.10;;
27539;SDS011;15906;52.046;4.724;2022-08-19T09:22:34;39.35;;;23.48;;
27539;SDS011;15906;52.046;4.724;2022-08-19T09:25:06;37.85;;;24.35;;
27539;SDS011;15906;52.046;4.724;2022-08-19T09:27:33;37.55;;;23.00;;
27539;SDS011;15906;52.046;4.724;2022-08-19T09:30:02;37.08;;;22.63;;
27539;SDS011;15906;52.046;4.724;2022-08-19T09:32:29;43.90;;;23.58;;
27539;SDS011;15906;52.046;4.724;2022-08-19T09:34:55;36.17;;;22.52;;
27539;SDS011;15906;52.046;4.724;2022-08-19T09:49:29;27.80;;;19.88;;
27539;SDS011;15906;52.046;4.724;2022-08-19T09:52:55;27.42;;;18.42;;
27539;SDS011;15906;52.046;4.724;2022-08-19T09:55:22;23.75;;;17.55;;
27539;SDS011;15906;52.046;4.724;2022-08-19T09:57:48;26.92;;;20.25;;
27539;SDS011;15906;52.046;4.724;2022-08-19T10:00:14;29.30;;;19.27;;
27539;SDS011;15906;52.046;4.724;2022-08-19T10:02:40;21.70;;;17.35;;
27539;SDS011;15906;52.046;4.724;2022-08-19T10:05:05;25.40;;;18.30;;
27539;SDS011;15906;52.046;4.724;2022-08-19T10:07:50;24.27;;;16.83;;
27539;SDS011;15906;52.046;4.724;2022-08-19T10:10:15;22.75;;;16.13;;
27539;SDS011;15906;52.046;4.724;2022-08-19T10:12:41;25.92;;;17.00;;
27539;SDS011;15906;52.046;4.724;2022-08-19T10:15:11;23.20;;;17.73;;
27539;SDS011;15906;52.046;4.724;2022-08-19T10:17:37;22.92;;;16.33;;
27539;SDS011;15906;52.046;4.724;2022-08-19T10:20:03;22.85;;;16.00;;
27539;SDS011;15906;52.046;4.724;2022-08-19T10:22:29;24.50;;;16.10;;
27539;SDS011;15906;52.046;4.724;2022-08-19T10:24:55;22.95;;;14.00;;
27539;SDS011;15906;52.046;4.724;2022-08-19T10:27:21;20.65;;;15.35;;
27539;SDS011;15906;52.046;4.724;2022-08-19T10:29:47;23.48;;;16.88;;
27539;SDS011;15906;52.046;4.724;2022-08-19T10:32:12;24.58;;;16.42;;
27539;SDS011;15906;52.046;4.724;2022-08-19T10:34:38;19.52;;;12.13;;
27539;SDS011;15906;52.046;4.724;2022-08-19T10:37:05;19.65;;;11.98;;
27539;SDS011;15906;52.046;4.724;2022-08-19T10:39:37;14.27;;;10.27;;
27539;SDS011;15906;52.046;4.724;2022-08-19T10:42:12;20.48;;;11.82;;
27539;SDS011;15906;52.046;4.724;2022-08-19T10:45:40;18.65;;;10.57;;
27539;SDS011;15906;52.046;4.724;2022-08-19T10:49:08;14.30;;;9.77;;
27539;SDS011;15906;52.046;4.724;2022-08-19T10:52:41;14.60;;;8.85;;
27539;SDS011;15906;52.046;4.724;2022-08-19T11:03:33;16.50;;;9.65;;
27539;SDS011;15906;52.046;4.724;2022-08-19T11:07:09;12.25;;;7.70;;
27539;SDS011;15906;52.046;4.724;2022-08-19T11:11:03;20.13;;;11.13;;
27539;SDS011;15906;52.046;4.724;2022-08-19T11:18:09;11.52;;;7.68;;
27539;SDS011;15906;52.046;4.724;2022-08-19T11:21:40;12.63;;;7.43;;
27539;SDS011;15906;52.046;4.724;2022-08-19T11:32:20;8.52;;;4.80;;
27539;SDS011;15906;52.046;4.724;2022-08-19T11:35:52;6.13;;;3.30;;
27539;SDS011;15906;52.046;4.724;2022-08-19T11:39:25;6.72;;;3.42;;
27539;SDS011;15906;52.046;4.724;2022-08-19T11:43:13;5.43;;;3.53;;
27539;SDS011;15906;52.046;4.724;2022-08-19T11:46:58;5.68;;;3.42;;
27539;SDS011;15906;52.046;4.724;2022-08-19T11:50:46;6.47;;;3.30;;
27539;SDS011;15906;52.046;4.724;2022-08-19T11:54:24;6.57;;;3.47;;
27539;SDS011;15906;52.046;4.724;2022-08-19T11:57:55;5.30;;;3.53;;
27539;SDS011;15906;52.046;4.724;2022-08-19T12:12:47;4.28;;;2.63;;
27539;SDS011;15906;52.046;4.724;2022-08-19T12:16:22;8.60;;;3.10;;
27539;SDS011;15906;52.046;4.724;2022-08-19T12:23:52;6.03;;;2.97;;
27539;SDS011;15906;52.046;4.724;2022-08-19T12:27:23;3.42;;;2.45;;
27539;SDS011;15906;52.046;4.724;2022-08-19T12:31:07;2.30;;;1.85;;
27539;SDS011;15906;52.046;4.724;2022-08-19T12:35:02;4.00;;;2.63;;
27539;SDS011;15906;52.046;4.724;2022-08-19T12:41:59;2.28;;;1.98;;
27539;SDS011;15906;52.046;4.724;2022-08-19T12:45:43;4.47;;;2.28;;
27539;SDS011;15906;52.046;4.724;2022-08-19T12:52:53;5.07;;;2.85;;
27539;SDS011;15906;52.046;4.724;2022-08-19T12:56:41;8.07;;;3.50;;
27539;SDS011;15906;52.046;4.724;2022-08-19T13:00:20;4.35;;;3.00;;
27539;SDS011;15906;52.046;4.724;2022-08-19T13:03:46;3.25;;;2.70;;
27539;SDS011;15906;52.046;4.724;2022-08-19T13:11:14;4.53;;;2.60;;
27539;SDS011;15906;52.046;4.724;2022-08-19T13:18:38;4.40;;;2.53;;
27539;SDS011;15906;52.046;4.724;2022-08-19T13:26:03;4.65;;;2.42;;
27539;SDS011;15906;52.046;4.724;2022-08-19T13:29:40;4.85;;;2.60;;
27539;SDS011;15906;52.046;4.724;2022-08-19T13:33:31;6.88;;;2.85;;
